createdAt,value
2017-06-29T00:00:44.718Z,22.28
2017-06-29T00:03:09.928Z,22.4
2017-06-29T00:05:34.110Z,22.44
2017-06-29T00:07:58.297Z,22.23
2017-06-29T00:10:22.481Z,22.03
2017-06-29T00:12:46.667Z,22.14
2017-06-29T00:14:48.045Z,22.19
2017-06-29T00:17:12.198Z,22
2017-06-29T00:19:36.383Z,21.78
2017-06-29T00:22:00.553Z,21.84
2017-06-29T00:24:24.745Z,21.75
2017-06-29T00:26:48.936Z,21.83
2017-06-29T00:29:13.119Z,21.65
2017-06-29T00:31:28.803Z,21.56
2017-06-29T00:33:52.990Z,21.69
2017-06-29T00:36:17.173Z,21.78
2017-06-29T00:38:41.361Z,21.66
2017-06-29T00:41:05.540Z,21.45
2017-06-29T00:43:29.624Z,21.47
2017-06-29T00:45:45.317Z,21.43
2017-06-29T00:48:01.099Z,21.38
2017-06-29T00:50:16.778Z,21.41
2017-06-29T00:52:40.963Z,21.37
2017-06-29T00:55:05.149Z,21.17
2017-06-29T00:57:29.329Z,21.19
2017-06-29T00:59:05.229Z,21.33
2017-06-29T01:01:29.360Z,21.1
2017-06-29T01:03:53.553Z,21.26
2017-06-29T01:06:09.228Z,21.2
2017-06-29T01:07:45.539Z,21.23
2017-06-29T01:10:09.683Z,21
2017-06-29T01:12:33.866Z,20.98
2017-06-29T01:14:57.949Z,21
2017-06-29T01:17:22.134Z,20.78
2017-06-29T01:19:46.214Z,20.63
2017-06-29T01:21:47.705Z,20.66
2017-06-29T01:23:49.652Z,20.7
2017-06-29T01:26:05.308Z,20.71
2017-06-29T01:28:20.996Z,20.85
2017-06-29T01:30:45.083Z,20.9
2017-06-29T01:33:00.765Z,20.59
2017-06-29T01:35:24.848Z,20.73
2017-06-29T01:37:48.930Z,20.98
2017-06-29T01:40:13.011Z,21
2017-06-29T01:42:37.096Z,20.88
2017-06-29T01:45:01.175Z,20.96
2017-06-29T01:47:25.258Z,21
2017-06-29T01:49:49.339Z,20.9
2017-06-29T01:52:13.419Z,20.95
2017-06-29T01:54:37.502Z,20.89
2017-06-29T01:56:53.188Z,20.86
2017-06-29T01:59:17.269Z,20.86
2017-06-29T02:01:41.353Z,20.5
2017-06-29T02:03:57.036Z,20.52
2017-06-29T02:06:12.620Z,20.3
2017-06-29T02:08:28.312Z,20.21
2017-06-29T02:10:52.388Z,20.36
2017-06-29T02:12:59.575Z,20.46
2017-06-29T02:15:23.653Z,20.56
2017-06-29T02:17:47.736Z,20.4
2017-06-29T02:20:11.818Z,20.66
2017-06-29T02:22:35.896Z,20.85
2017-06-29T02:24:59.983Z,20.53
2017-06-29T02:27:15.665Z,20.48
2017-06-29T02:29:39.751Z,20.36
2017-06-29T02:32:03.831Z,20.32
2017-06-29T02:34:27.914Z,20.4
2017-06-29T02:36:35.099Z,20.6
2017-06-29T02:38:59.181Z,20.52
2017-06-29T02:41:14.763Z,20.44
2017-06-29T02:43:30.346Z,20.44
2017-06-29T02:45:54.425Z,20.49
2017-06-29T02:48:10.009Z,20.71
2017-06-29T02:50:34.090Z,20.63
2017-06-29T02:52:58.072Z,20.71
2017-06-29T02:55:22.156Z,20.78
2017-06-29T02:57:24.046Z,20.74
2017-06-29T02:59:39.699Z,20.78
2017-06-29T03:01:55.281Z,20.52
2017-06-29T03:04:10.866Z,20.55
2017-06-29T03:06:34.944Z,20.53
2017-06-29T03:08:59.028Z,20.74
2017-06-29T03:11:14.612Z,20.88
2017-06-29T03:13:38.693Z,21.44
2017-06-29T03:16:02.774Z,21.19
2017-06-29T03:18:26.857Z,21.94
2017-06-29T03:20:50.937Z,21.75
2017-06-29T03:23:15.022Z,21.47
2017-06-29T03:25:39.200Z,21.74
2017-06-29T03:28:03.283Z,21.89
2017-06-29T03:30:27.369Z,21.7
2017-06-29T03:32:51.549Z,21.62
2017-06-29T03:35:15.638Z,21.32
2017-06-29T03:37:39.719Z,21.23
2017-06-29T03:40:03.797Z,21.01
2017-06-29T03:42:27.882Z,21.11
2017-06-29T03:44:29.360Z,21.1
2017-06-29T03:46:45.018Z,21.2
2017-06-29T03:49:00.698Z,21.14
2017-06-29T03:51:24.785Z,21.01
2017-06-29T03:53:31.971Z,21.07
2017-06-29T03:55:56.057Z,20.66
2017-06-29T03:58:20.129Z,20.89
2017-06-29T04:00:27.315Z,20.77
2017-06-29T04:02:43.006Z,20.67
2017-06-29T04:05:07.087Z,20.8
2017-06-29T04:07:31.170Z,20.78
2017-06-29T04:09:55.249Z,20.78
2017-06-29T04:12:19.330Z,20.8
2017-06-29T04:14:43.415Z,20.64
2017-06-29T04:17:07.497Z,20.78
2017-06-29T04:19:08.974Z,20.67
2017-06-29T04:21:10.317Z,20.48
2017-06-29T04:23:34.477Z,20.6
2017-06-29T04:25:58.559Z,20.73
2017-06-29T04:28:22.626Z,20.89
2017-06-29T04:30:46.721Z,20.95
2017-06-29T04:33:10.804Z,21.1
2017-06-29T04:35:34.887Z,21.07
2017-06-29T04:37:58.971Z,20.85
2017-06-29T04:40:14.653Z,20.88
2017-06-29T04:42:38.740Z,21.05
2017-06-29T04:45:02.819Z,21
2017-06-29T04:47:26.899Z,21.08
2017-06-29T04:49:50.984Z,21.2
2017-06-29T04:52:15.062Z,21.2
2017-06-29T04:54:39.146Z,21.13
2017-06-29T04:57:03.228Z,21.15
2017-06-29T04:59:10.414Z,21.3
2017-06-29T05:01:34.493Z,21.53
2017-06-29T05:03:58.577Z,21.53
2017-06-29T05:06:22.660Z,21.45
2017-06-29T05:08:46.843Z,21.3
2017-06-29T05:11:10.927Z,21.37
2017-06-29T05:13:35.010Z,21.53
2017-06-29T05:15:59.090Z,21.6
2017-06-29T05:18:09.510Z,21.75
2017-06-29T05:20:33.650Z,21.58
2017-06-29T05:22:49.317Z,21.37
2017-06-29T05:25:13.403Z,21.51
2017-06-29T05:27:37.487Z,21.45
2017-06-29T05:30:01.670Z,21.22
2017-06-29T05:32:25.849Z,21.53
2017-06-29T05:34:49.936Z,21.63
2017-06-29T05:37:14.116Z,21.68
2017-06-29T05:39:15.513Z,21.69
2017-06-29T05:41:39.655Z,21.59
2017-06-29T05:44:03.836Z,21.56
2017-06-29T05:46:28.023Z,21.63
2017-06-29T05:48:43.703Z,21.7
2017-06-29T05:51:07.892Z,21.69
2017-06-29T05:53:32.074Z,21.66
2017-06-29T05:55:42.476Z,21.72
2017-06-29T05:58:06.620Z,21.89
2017-06-29T06:00:07.991Z,21.6
2017-06-29T06:02:09.412Z,21.7
2017-06-29T06:04:25.102Z,21.83
2017-06-29T06:06:40.783Z,21.65
2017-06-29T06:09:04.977Z,21.69
2017-06-29T06:11:20.757Z,21.66
2017-06-29T06:13:44.839Z,22.08
2017-06-29T06:15:46.205Z,22.25
2017-06-29T06:18:10.373Z,22.44
2017-06-29T06:20:34.560Z,22.65
2017-06-29T06:22:58.745Z,22.16
2017-06-29T06:25:22.927Z,22.38
2017-06-29T06:27:47.111Z,22.28
2017-06-29T06:30:02.902Z,22.07
2017-06-29T06:32:27.083Z,22.25
2017-06-29T06:34:51.268Z,22.3
2017-06-29T06:36:52.748Z,22.65
2017-06-29T06:39:08.506Z,22.81
2017-06-29T06:41:32.691Z,22.8
2017-06-29T06:43:56.879Z,22.91
2017-06-29T06:46:21.062Z,22.65
2017-06-29T06:48:36.843Z,22.78
2017-06-29T06:51:01.131Z,22.89
2017-06-29T06:53:25.314Z,23.01
2017-06-29T06:55:41.104Z,22.93
2017-06-29T06:58:05.391Z,23.01
2017-06-29T07:00:29.679Z,23.55
2017-06-29T07:02:53.961Z,23.88
2017-06-29T07:05:18.248Z,23.94
2017-06-29T07:07:42.539Z,24.21
2017-06-29T07:10:06.829Z,24.61
2017-06-29T07:12:31.209Z,24.5
2017-06-29T07:14:55.605Z,24.47
2017-06-29T07:17:19.990Z,24.55
2017-06-29T07:19:44.277Z,25.21
2017-06-29T07:22:08.656Z,24.66
2017-06-29T07:24:33.056Z,24.84
2017-06-29T07:26:57.448Z,25.01
2017-06-29T07:29:21.835Z,25.16
2017-06-29T07:31:46.335Z,24.63
2017-06-29T07:34:10.819Z,25.21
2017-06-29T07:36:03.833Z,25.16
2017-06-29T07:38:29.286Z,24.81
2017-06-29T07:40:53.780Z,25.01
2017-06-29T07:43:18.267Z,24.93
2017-06-29T07:45:42.759Z,25.19
2017-06-29T07:48:07.260Z,25.34
2017-06-29T07:50:31.740Z,26.07
2017-06-29T07:52:56.234Z,26.59
2017-06-29T07:55:20.728Z,27.28
2017-06-29T07:57:36.820Z,28.13
2017-06-29T08:00:01.413Z,27.93
2017-06-29T08:02:09.108Z,27.38
2017-06-29T08:04:33.722Z,27.23
2017-06-29T08:06:58.326Z,27.23
2017-06-29T08:09:22.894Z,26.44
2017-06-29T08:11:47.489Z,26.03
2017-06-29T08:14:12.084Z,26.49
2017-06-29T08:16:28.276Z,26.91
2017-06-29T08:18:52.975Z,27.71
2017-06-29T08:21:17.671Z,28.43
2017-06-29T08:23:42.364Z,28.18
2017-06-29T08:25:52.937Z,29.09
2017-06-29T08:28:17.730Z,28.71
2017-06-29T08:30:34.035Z,29.37
2017-06-29T08:32:44.130Z,29.43
2017-06-29T08:35:08.983Z,29.37
2017-06-29T08:37:33.722Z,28.15
2017-06-29T08:39:58.500Z,29
2017-06-29T08:42:23.381Z,29.57
2017-06-29T08:44:48.280Z,30.49
2017-06-29T08:47:13.179Z,29.61
2017-06-29T08:49:38.084Z,29.47
2017-06-29T08:52:02.988Z,30.36
2017-06-29T08:54:27.884Z,29.15
2017-06-29T08:56:52.784Z,29.77
2017-06-29T08:59:17.687Z,30.98
2017-06-29T09:01:42.593Z,30.54
2017-06-29T09:03:59.094Z,31.93
2017-06-29T09:06:24.094Z,30.96
2017-06-29T09:08:49.106Z,31.04
2017-06-29T09:11:14.103Z,30.24
2017-06-29T09:13:39.105Z,30.73
2017-06-29T09:16:04.123Z,30.24
2017-06-29T09:18:29.114Z,29.28
2017-06-29T09:20:54.118Z,29.52
2017-06-29T09:23:19.125Z,28.75
2017-06-29T09:25:21.224Z,29.21
2017-06-29T09:27:46.192Z,29.37
2017-06-29T09:30:02.586Z,29.43
2017-06-29T09:32:27.490Z,29.03
2017-06-29T09:34:43.909Z,29.06
2017-06-29T09:37:08.829Z,30.4
2017-06-29T09:39:33.708Z,30.76
2017-06-29T09:41:58.651Z,31.29
2017-06-29T09:44:23.650Z,30.81
2017-06-29T09:46:48.659Z,31.62
2017-06-29T09:49:13.642Z,30.24
2017-06-29T09:51:30.218Z,30.59
2017-06-29T09:53:55.319Z,31.15
2017-06-29T09:56:20.430Z,30.78
2017-06-29T09:58:45.531Z,30.96
2017-06-29T10:01:10.637Z,31.82
2017-06-29T10:03:27.245Z,31.93
2017-06-29T10:05:52.349Z,31.37
2017-06-29T10:08:17.559Z,30.83
2017-06-29T10:10:34.170Z,29.68
2017-06-29T10:12:59.270Z,29.42
2017-06-29T10:15:00.902Z,29.25
2017-06-29T10:17:25.932Z,29.02
2017-06-29T10:19:50.880Z,28.7
2017-06-29T10:22:15.935Z,28.22
2017-06-29T10:24:32.443Z,28.19
2017-06-29T10:26:48.946Z,28.23
2017-06-29T10:29:13.844Z,27.85
2017-06-29T10:31:15.410Z,27.64
2017-06-29T10:33:16.951Z,27.11
2017-06-29T10:35:33.358Z,27.03
2017-06-29T10:37:58.154Z,26.88
2017-06-29T10:40:22.955Z,27.47
2017-06-29T10:42:47.751Z,27.98
2017-06-29T10:45:12.553Z,28.57
2017-06-29T10:47:37.354Z,29.37
2017-06-29T10:49:47.481Z,29.67
2017-06-29T10:52:12.403Z,29.67
2017-06-29T10:54:37.309Z,30.48
2017-06-29T10:57:02.212Z,30.26
2017-06-29T10:59:27.109Z,31.08
2017-06-29T11:01:52.113Z,31.42
2017-06-29T11:04:17.118Z,31.81
2017-06-29T11:06:42.117Z,30.62
2017-06-29T11:09:07.128Z,30.88
2017-06-29T11:11:32.127Z,31.87
2017-06-29T11:13:33.723Z,31.51
2017-06-29T11:15:58.786Z,31.11
2017-06-29T11:18:23.890Z,30.89
2017-06-29T11:20:48.998Z,30.95
2017-06-29T11:23:14.102Z,30.99
2017-06-29T11:25:39.217Z,30.56
2017-06-29T11:28:04.215Z,31.69
2017-06-29T11:30:20.715Z,32.05
2017-06-29T11:32:45.829Z,32.22
2017-06-29T11:35:02.431Z,32.48
2017-06-29T11:37:27.533Z,32.41
2017-06-29T11:39:52.677Z,32.67
2017-06-29T11:42:17.749Z,32.15
2017-06-29T11:44:34.352Z,32.64
2017-06-29T11:46:44.845Z,31.97
2017-06-29T11:49:10.034Z,31.77
2017-06-29T11:51:26.628Z,32.05
2017-06-29T11:53:51.742Z,31.44
2017-06-29T11:56:16.770Z,31.15
2017-06-29T11:58:41.846Z,31.79
2017-06-29T12:01:06.953Z,31.23
2017-06-29T12:03:23.591Z,31.05
2017-06-29T12:05:40.064Z,30.92
2017-06-29T12:07:56.585Z,30.78
2017-06-29T12:10:21.574Z,30.81
2017-06-29T12:12:46.605Z,30.73
2017-06-29T12:15:11.592Z,30.62
2017-06-29T12:17:21.763Z,30.77
2017-06-29T12:19:38.238Z,30.8
2017-06-29T12:22:03.242Z,30.73
2017-06-29T12:24:04.833Z,29.28
2017-06-29T12:26:29.720Z,29.61
2017-06-29T12:28:46.199Z,30.17
2017-06-29T12:31:11.206Z,29.76
2017-06-29T12:33:36.105Z,29.49
2017-06-29T12:36:01.006Z,30.31
2017-06-29T12:38:25.907Z,29.77
2017-06-29T12:40:50.810Z,28.8
2017-06-29T12:43:07.222Z,29.27
2017-06-29T12:45:23.507Z,27.71
2017-06-29T12:47:48.311Z,26.93
2017-06-29T12:50:13.216Z,26.85
2017-06-29T12:52:38.109Z,26.56
2017-06-29T12:55:02.836Z,27
2017-06-29T12:57:19.110Z,27.34
2017-06-29T12:59:35.433Z,27.85
2017-06-29T13:01:45.701Z,28.15
2017-06-29T13:03:47.249Z,27.68
2017-06-29T13:06:12.017Z,27.33
2017-06-29T13:08:28.317Z,27.44
2017-06-29T13:10:38.445Z,28
2017-06-29T13:12:48.654Z,28.12
2017-06-29T13:15:13.410Z,28.08
2017-06-29T13:17:38.228Z,28.49
2017-06-29T13:20:02.921Z,28.7
2017-06-29T13:22:27.627Z,28.41
2017-06-29T13:24:52.415Z,28.04
2017-06-29T13:27:08.617Z,28.47
2017-06-29T13:29:33.415Z,27.88
2017-06-29T13:31:58.104Z,27.37
2017-06-29T13:34:22.908Z,27.6
2017-06-29T13:36:47.707Z,27.53
2017-06-29T13:39:12.404Z,27.53
2017-06-29T13:41:37.098Z,27.81
2017-06-29T13:43:39.404Z,28.04
2017-06-29T13:46:04.281Z,28.55
2017-06-29T13:48:29.085Z,28.57
2017-06-29T13:50:53.869Z,28.41
2017-06-29T13:53:18.571Z,28.18
2017-06-29T13:55:43.368Z,28.57
2017-06-29T13:58:08.174Z,28.25
2017-06-29T14:00:32.998Z,28.28
2017-06-29T14:02:59.607Z,27.81
2017-06-29T14:05:24.405Z,27.22
2017-06-29T14:07:49.199Z,27.67
2017-06-29T14:09:50.975Z,27.83
2017-06-29T14:12:15.656Z,27.73
2017-06-29T14:14:40.458Z,27.2
2017-06-29T14:17:05.256Z,27.13
2017-06-29T14:19:29.950Z,27.22
2017-06-29T14:21:46.249Z,27.4
2017-06-29T14:24:02.501Z,27.15
2017-06-29T14:26:10.243Z,27.01
2017-06-29T14:28:34.941Z,27.45
2017-06-29T14:30:59.641Z,27.71
2017-06-29T14:33:24.337Z,27.41
2017-06-29T14:35:49.033Z,27.25
2017-06-29T14:38:05.228Z,26.88
2017-06-29T14:40:29.931Z,26.49
2017-06-29T14:42:46.130Z,26.76
2017-06-29T14:45:10.823Z,26.18
2017-06-29T14:47:18.519Z,26.24
2017-06-29T14:49:43.096Z,26.34
2017-06-29T14:52:07.696Z,26.16
2017-06-29T14:54:23.901Z,24.89
2017-06-29T14:56:40.022Z,24.34
2017-06-29T14:59:04.589Z,23.55
2017-06-29T15:01:29.084Z,21.77
2017-06-29T15:03:53.566Z,21.72
2017-06-29T15:06:03.622Z,21.7
2017-06-29T15:08:28.014Z,21.5
2017-06-29T15:10:52.302Z,21.32
2017-06-29T15:12:28.179Z,21.47
2017-06-29T15:14:52.442Z,21.17
2017-06-29T15:17:16.727Z,21.14
2017-06-29T15:19:40.910Z,21.01
2017-06-29T15:22:05.096Z,21.04
2017-06-29T15:24:29.380Z,20.89
2017-06-29T15:26:54.591Z,20.92
2017-06-29T15:29:11.298Z,20.6
2017-06-29T15:31:35.484Z,20.67
2017-06-29T15:33:59.676Z,21
2017-06-29T15:36:23.856Z,21.01
2017-06-29T15:38:48.033Z,20.9
2017-06-29T15:41:03.720Z,20.98
2017-06-29T15:43:19.407Z,21.14
2017-06-29T15:45:43.593Z,21.19
2017-06-29T15:48:07.780Z,21.23
2017-06-29T15:50:23.589Z,21.43
2017-06-29T15:52:47.748Z,21.7
2017-06-29T15:55:11.933Z,21.99
2017-06-29T15:57:22.374Z,21.8
2017-06-29T15:59:32.775Z,22.01
2017-06-29T16:01:34.141Z,22.36
2017-06-29T16:03:58.389Z,22.04
2017-06-29T16:06:22.675Z,22.68
2017-06-29T16:08:46.964Z,22.8
2017-06-29T16:11:11.252Z,23.02
2017-06-29T16:13:35.532Z,22.41
2017-06-29T16:15:59.822Z,22.53
2017-06-29T16:18:15.717Z,23.04
2017-06-29T16:20:31.517Z,23.2
2017-06-29T16:22:55.790Z,23.71
2017-06-29T16:25:20.077Z,23.58
2017-06-29T16:27:44.467Z,23.47
2017-06-29T16:29:51.837Z,23.76
2017-06-29T16:32:07.885Z,23.63
2017-06-29T16:34:32.129Z,23.67
2017-06-29T16:36:56.612Z,23.2
2017-06-29T16:39:07.475Z,23.36
2017-06-29T16:41:23.386Z,22.65
2017-06-29T16:43:47.675Z,22.47
2017-06-29T16:45:49.663Z,22.56
2017-06-29T16:48:05.529Z,23.21
2017-06-29T16:50:29.917Z,23.23
2017-06-29T16:52:45.702Z,23.25
2017-06-29T16:55:09.963Z,23.55
2017-06-29T16:57:34.275Z,23.39
2017-06-29T16:59:35.696Z,23.13
2017-06-29T17:02:00.028Z,23.45
2017-06-29T17:04:24.403Z,23.32
2017-06-29T17:06:40.207Z,23.39
2017-06-29T17:09:04.431Z,23.79
2017-06-29T17:11:11.867Z,23.96
2017-06-29T17:13:36.131Z,24.06
2017-06-29T17:16:00.395Z,23.56
2017-06-29T17:18:24.727Z,23.66
2017-06-29T17:20:49.125Z,23.47
2017-06-29T17:23:13.608Z,23.95
2017-06-29T17:25:37.917Z,23.84
2017-06-29T17:27:47.890Z,23.88
2017-06-29T17:30:03.734Z,23.95
2017-06-29T17:32:28.233Z,24.28
2017-06-29T17:34:52.615Z,24.59
2017-06-29T17:37:17.011Z,24.1
2017-06-29T17:39:32.997Z,23.66
2017-06-29T17:41:57.333Z,23.99
2017-06-29T17:44:04.777Z,23.82
2017-06-29T17:46:29.166Z,23.71
2017-06-29T17:48:45.057Z,23.89
2017-06-29T17:51:09.444Z,24.06
2017-06-29T17:53:33.834Z,24.09
2017-06-29T17:55:49.827Z,24.16
2017-06-29T17:58:14.218Z,24.1
2017-06-29T18:00:38.608Z,24.21
2017-06-29T18:03:02.894Z,23.94
2017-06-29T18:05:27.198Z,24.01
2017-06-29T18:07:54.439Z,23.73
2017-06-29T18:10:18.820Z,24.01
2017-06-29T18:12:43.212Z,24.03
2017-06-29T18:14:44.649Z,24.24
2017-06-29T18:17:09.053Z,24.1
2017-06-29T18:19:24.942Z,24.14
2017-06-29T18:21:49.231Z,23.91
2017-06-29T18:24:13.621Z,24.1
2017-06-29T18:26:38.006Z,23.95
2017-06-29T18:28:53.906Z,24
2017-06-29T18:31:18.290Z,24.03
2017-06-29T18:33:42.678Z,24.11
2017-06-29T18:36:07.069Z,23.95
2017-06-29T18:38:31.360Z,24
2017-06-29T18:40:55.741Z,23.86
2017-06-29T18:43:06.236Z,23.81
2017-06-29T18:45:30.586Z,23.73
2017-06-29T18:47:54.979Z,23.32
2017-06-29T18:50:19.257Z,23.59
2017-06-29T18:52:35.213Z,23.84
2017-06-29T18:54:59.339Z,23.74
2017-06-29T18:57:23.602Z,23.67
2017-06-29T18:59:47.926Z,23.71
2017-06-29T19:02:12.310Z,23.67
2017-06-29T19:04:22.796Z,23.58
2017-06-29T19:06:47.159Z,23.52
2017-06-29T19:09:11.549Z,23.44
2017-06-29T19:11:35.837Z,23.45
2017-06-29T19:13:51.726Z,23.58
2017-06-29T19:16:16.010Z,23.37
2017-06-29T19:18:40.299Z,23.45
2017-06-29T19:21:04.582Z,23.47
2017-06-29T19:23:28.894Z,23.18
2017-06-29T19:25:53.055Z,23.18
2017-06-29T19:28:17.340Z,23.23
2017-06-29T19:30:27.317Z,22.78
2017-06-29T19:32:51.577Z,23.02
2017-06-29T19:35:15.868Z,22.99
2017-06-29T19:37:40.016Z,22.89
2017-06-29T19:39:55.836Z,22.95
2017-06-29T19:42:20.120Z,22.89
2017-06-29T19:44:44.399Z,22.78
2017-06-29T19:47:08.702Z,22.77
2017-06-29T19:49:32.982Z,22.62
2017-06-29T19:51:57.171Z,22.38
2017-06-29T19:54:21.459Z,22.21
2017-06-29T19:56:45.646Z,22.16
2017-06-29T19:59:09.869Z,21.66
2017-06-29T20:00:45.678Z,21.56
2017-06-29T20:03:09.962Z,21.22
2017-06-29T20:05:34.154Z,21.01
2017-06-29T20:07:58.335Z,21.01
2017-06-29T20:10:22.518Z,21.05
2017-06-29T20:12:46.604Z,20.78
2017-06-29T20:15:02.284Z,20.67
2017-06-29T20:17:17.967Z,20.5
2017-06-29T20:19:42.046Z,20.52
2017-06-29T20:21:52.466Z,20.36
2017-06-29T20:24:17.616Z,20.64
2017-06-29T20:26:41.796Z,20.26
2017-06-29T20:29:05.984Z,20.18
2017-06-29T20:31:07.947Z,20.29
2017-06-29T20:33:32.031Z,20.22
2017-06-29T20:35:56.109Z,20.18
2017-06-29T20:38:20.195Z,20.15
2017-06-29T20:40:44.173Z,19.93
2017-06-29T20:43:09.283Z,19.96
2017-06-29T20:45:33.358Z,20
2017-06-29T20:47:34.810Z,19.9
2017-06-29T20:49:50.393Z,20.14
2017-06-29T20:52:14.403Z,20.03
2017-06-29T20:54:38.454Z,20.17
2017-06-29T20:56:54.036Z,19.92
2017-06-29T20:59:18.009Z,20.15
2017-06-29T21:01:42.091Z,19.97
2017-06-29T21:04:06.084Z,20.02
2017-06-29T21:06:30.056Z,20.07
2017-06-29T21:08:55.061Z,20
2017-06-29T21:11:19.042Z,19.9
2017-06-29T21:13:43.022Z,19.89
2017-06-29T21:16:07.001Z,20.02
2017-06-29T21:18:30.891Z,20.14
2017-06-29T21:20:23.801Z,20.1
2017-06-29T21:22:33.645Z,20.08
2017-06-29T21:24:49.260Z,20.03
2017-06-29T21:27:13.331Z,19.92
2017-06-29T21:29:37.318Z,19.77
2017-06-29T21:31:52.900Z,19.92
2017-06-29T21:34:08.498Z,19.78
2017-06-29T21:36:32.467Z,19.77
2017-06-29T21:38:48.049Z,19.64
2017-06-29T21:41:12.125Z,19.66
2017-06-29T21:43:36.214Z,19.64
2017-06-29T21:46:00.195Z,19.67
2017-06-29T21:48:24.176Z,19.52
2017-06-29T21:50:48.168Z,19.45
2017-06-29T21:53:12.134Z,19.62
2017-06-29T21:55:36.110Z,19.47
2017-06-29T21:58:00.090Z,19.44
2017-06-29T22:00:24.071Z,19.34
2017-06-29T22:02:48.054Z,19.23
2017-06-29T22:05:03.632Z,19.16
2017-06-29T22:07:19.217Z,19.17
2017-06-29T22:09:34.787Z,19.11
2017-06-29T22:11:58.776Z,19.19
2017-06-29T22:14:22.757Z,19.37
2017-06-29T22:16:46.734Z,19.09
2017-06-29T22:19:10.763Z,19.27
2017-06-29T22:21:26.306Z,19.22
2017-06-29T22:23:02.101Z,19.17
2017-06-29T22:25:26.130Z,19.44
2017-06-29T22:27:50.106Z,19.16
2017-06-29T22:30:05.685Z,19.2
2017-06-29T22:32:21.161Z,19.26
2017-06-29T22:34:45.052Z,19.32
2017-06-29T22:37:09.029Z,19.48
2017-06-29T22:39:33.007Z,19.49
2017-06-29T22:41:56.993Z,19.48
2017-06-29T22:43:58.324Z,19.41
2017-06-29T22:46:22.314Z,19.29
2017-06-29T22:48:23.600Z,19.35
2017-06-29T22:50:47.537Z,19.32
2017-06-29T22:52:48.921Z,19.39
2017-06-29T22:55:04.472Z,19.29
2017-06-29T22:57:28.454Z,19.37
2017-06-29T22:59:52.326Z,19.35
2017-06-29T23:02:16.304Z,19.49
2017-06-29T23:04:17.640Z,19.66
2017-06-29T23:06:41.631Z,19.42
2017-06-29T23:08:57.217Z,19.11
2017-06-29T23:11:21.199Z,19.16
2017-06-29T23:13:45.177Z,19.2
2017-06-29T23:16:09.154Z,19.19
2017-06-29T23:18:33.033Z,19.24
2017-06-29T23:20:48.617Z,19.3
2017-06-29T23:23:04.093Z,19.15
2017-06-29T23:25:28.075Z,19.05
2017-06-29T23:27:52.054Z,19.11
2017-06-29T23:30:16.032Z,18.97
2017-06-29T23:32:40.017Z,19.22
2017-06-29T23:35:03.987Z,19.19
2017-06-29T23:37:27.973Z,18.97
2017-06-29T23:39:51.952Z,18.83
2017-06-29T23:42:15.930Z,19.09
2017-06-29T23:44:39.911Z,19.27
2017-06-29T23:46:41.251Z,19.3
2017-06-29T23:49:05.241Z,19.15
2017-06-29T23:51:29.223Z,19.17
2017-06-29T23:53:53.198Z,19.17
2017-06-29T23:56:17.180Z,19.15
2017-06-29T23:58:41.083Z,18.83
